University Park Airport
KUNV : now visible

Aeroporto :











RITROVATECI SU...

 
LOGIN :

Iscrizione | Disclaimer

   EN    FR    IT 

 









Sommario :    VFR   VFR Marginale   IFR   IFR Intensivo   IFR Molto Intensivo
Visibilità : 
Base nubi : 
>= 8 km
>= 3000ft
5 / 8 km
1000 / 3000 ft
1500m / 5 km
500 / 1000 ft
800 / 1500m
200 / 500 ft
< 800m
< 200 ft
Simboli :   Temporali  Nebbia  Neve Forte  Precipitazioni Forti  Vento > 20 kt






- Altitudine del aeroporto : 1239 ft


KUNV - University Park

ULTIMO METAR :
  • 221153Z 23009G15KT 10SM OVC029 12/06 A2973

METARs OBSOLETI :
  • 221053Z 21004KT 10SM BKN033 BKN039 OVC047 11/06 A2976
  • 221038Z AUTO 20004KT 10SM BKN033 OVC047 11/06 A2976 RMK AO2 T01070057
  • 221015Z AUTO 20005KT 10SM OVC031 11/06 A2979 RMK AO2 T01110059
  • 220956Z AUTO 20005KT 10SM BKN033 OVC045 11/06 A2979 RMK AO2 T01100055
  • 220936Z AUTO 21007KT 10SM BKN031 OVC043 11/05 A2979 RMK AO2 T01090054

TAF KUNV
Valido dal 22 a 12 ore il 23 a 12 ore UTC


221148Z 2212/2312 22005KT P6SM OVC035
FM221300 22007KT P6SM OVC025
TEMPO 2213/2215 6SM -SHRA OVC015
FM221500 29014G25KT P6SM VCSH OVC030
FM221600 29015G25KT P6SM SCT040
FM230000 29010KT P6SM SKC
FM230600 25003KT P6SM SKC



MetMap, La meteo Aeronautica in un colpo d'occhio ! - Copyright ORBIFLY Dicembre 2007 - Disclaimer

ORBIFLY MET'MAP TEAM :

Programmazione e sviluppo : Alexandra Zaïnal
Concezione e sviluppo : Baudouin d'Aumeries
Co-Programmazione e sviluppo : Marc-Olivier Méhu
Supporto tecnico e logistico : Manuel Goepfert
Aiuto per la traduzione : Arnaldo La Scala

Contatto : metmap@orbifly.com




FONTI E CREDITI :

   NOAA       Earth
Advisory